Terminal Aerodrome Forecast
Issued by NWS

Home | Current Version | Previous Version | Text Only | Print | Product List | Glossary Off
Versions: 1 2 3 4 5 6 7 8 9 10 11 12 13

597
FTUS43 KICT 122320
TAFCNU
TAF
KCNU 122320Z 1300/1324 01009KT P6SM SCT090
     FM131200 06008KT P6SM SCT250
     FM131800 11009KT P6SM SCT250=

USA.gov is the U.S. government's official web portal to all federal, state and local government web resources and services.